createdAt,value
2023-08-11T00:01:52.254Z,2.00
2023-08-11T00:04:52.966Z,1.83
2023-08-11T00:07:22.961Z,1.73
2023-08-11T00:09:55.617Z,1.88
2023-08-11T00:18:17.136Z,2.40
2023-08-11T00:20:47.368Z,2.08
2023-08-11T00:23:25.628Z,2.20
2023-08-11T00:26:01.883Z,2.33
2023-08-11T00:28:36.507Z,2.00
2023-08-11T00:33:53.618Z,2.20
2023-08-11T00:36:29.573Z,1.98
2023-08-11T00:39:09.167Z,2.10
2023-08-11T00:41:41.787Z,2.05
2023-08-11T00:44:11.589Z,1.90
2023-08-11T00:46:55.767Z,1.90
2023-08-11T00:49:31.773Z,2.05
2023-08-11T00:52:08.360Z,2.22
2023-08-11T00:54:38.365Z,2.22
2023-08-11T00:57:22.079Z,2.10
2023-08-11T00:59:54.526Z,2.10
2023-08-11T01:05:24.102Z,2.10
2023-08-11T01:11:40.648Z,2.15
2023-08-11T01:14:46.382Z,2.03
2023-08-11T01:17:30.604Z,2.00
2023-08-11T01:20:03.537Z,1.90
2023-08-11T01:22:47.851Z,2.13
2023-08-11T01:25:23.060Z,2.35
2023-08-11T01:28:06.805Z,2.10
2023-08-11T01:33:32.093Z,2.00
2023-08-11T01:36:07.913Z,1.80
2023-08-11T01:38:56.531Z,2.05
2023-08-11T01:41:50.728Z,2.00
2023-08-11T01:45:17.543Z,2.20
2023-08-11T01:47:57.734Z,2.17
2023-08-11T01:50:31.838Z,2.17
2023-08-11T01:53:06.274Z,2.10
2023-08-11T01:56:02.624Z,2.10
2023-08-11T01:58:34.557Z,2.30
2023-08-11T02:01:10.620Z,2.47
2023-08-11T02:03:45.166Z,2.00
2023-08-11T02:06:37.822Z,2.00
2023-08-11T02:09:27.372Z,2.22
2023-08-11T02:11:56.553Z,2.03
2023-08-11T02:14:27.657Z,2.20
2023-08-11T02:16:57.946Z,2.28
2023-08-11T02:19:30.262Z,2.10
2023-08-11T02:21:58.547Z,2.13
2023-08-11T02:24:42.378Z,2.05
2023-08-11T02:27:18.181Z,2.10
2023-08-11T02:29:50.548Z,2.13
2023-08-11T02:32:27.454Z,2.30
2023-08-11T02:35:03.304Z,2.25
2023-08-11T02:37:39.203Z,2.00
2023-08-11T02:40:15.840Z,1.90
2023-08-11T02:43:04.778Z,2.17
2023-08-11T02:45:34.238Z,2.10
2023-08-11T02:48:01.179Z,2.13
2023-08-11T02:50:41.748Z,2.08
2023-08-11T02:53:16.119Z,2.28
2023-08-11T02:55:45.070Z,2.00
2023-08-11T02:58:20.895Z,2.20
2023-08-11T03:00:58.016Z,1.95
2023-08-11T03:03:32.950Z,1.92
2023-08-11T03:06:20.033Z,2.00
2023-08-11T03:08:51.919Z,1.95
2023-08-11T03:11:24.687Z,2.05
2023-08-11T03:13:57.759Z,1.88
2023-08-11T03:16:30.502Z,2.40
2023-08-11T03:19:03.831Z,2.20
2023-08-11T03:21:46.876Z,2.47
2023-08-11T03:24:17.506Z,2.22
2023-08-11T03:26:46.790Z,2.13
2023-08-11T03:29:15.515Z,2.40
2023-08-11T03:31:43.812Z,2.58
2023-08-11T03:34:17.667Z,2.13
2023-08-11T03:36:50.143Z,2.08
2023-08-11T03:39:17.775Z,2.28
2023-08-11T03:41:46.777Z,2.33
2023-08-11T03:44:16.354Z,2.20
2023-08-11T03:46:50.070Z,2.10
2023-08-11T03:52:18.685Z,2.13
2023-08-11T03:54:58.547Z,1.98
2023-08-11T03:57:27.566Z,1.73
2023-08-11T04:00:07.548Z,2.38
2023-08-11T04:02:42.163Z,2.08
2023-08-11T04:05:16.921Z,2.33
2023-08-11T04:07:46.382Z,1.98
2023-08-11T04:10:19.360Z,2.00
2023-08-11T04:12:51.011Z,2.03
2023-08-11T04:15:21.733Z,2.38
2023-08-11T04:17:56.092Z,2.00
2023-08-11T04:20:36.425Z,2.40
2023-08-11T04:23:08.244Z,2.22
2023-08-11T04:25:45.420Z,2.10
2023-08-11T04:30:55.355Z,2.13
2023-08-11T04:33:30.305Z,2.17
2023-08-11T04:38:44.586Z,1.90
2023-08-11T04:41:18.871Z,2.42
2023-08-11T04:44:00.809Z,2.30
2023-08-11T04:46:48.762Z,2.20
2023-08-11T04:49:16.764Z,2.65
2023-08-11T04:51:43.290Z,2.78
2023-08-11T04:54:11.536Z,2.88
2023-08-11T04:56:38.734Z,2.90
2023-08-11T04:59:06.178Z,2.65
2023-08-11T05:01:36.240Z,2.92
2023-08-11T05:04:03.850Z,3.03
2023-08-11T05:09:56.739Z,2.45
2023-08-11T05:12:31.149Z,3.95
2023-08-11T05:15:08.005Z,10.75
2023-08-11T05:17:40.557Z,6.95
2023-08-11T05:20:19.757Z,4.60
2023-08-11T05:22:53.629Z,3.70
2023-08-11T05:25:36.837Z,2.72
2023-08-11T05:28:09.365Z,3.88
2023-08-11T05:30:54.343Z,2.83
2023-08-11T05:33:31.837Z,3.08
2023-08-11T05:35:58.399Z,2.97
2023-08-11T05:38:24.866Z,2.67
2023-08-11T05:41:02.117Z,3.08
2023-08-11T05:43:31.981Z,2.72
2023-08-11T05:46:13.686Z,2.78
2023-08-11T05:48:48.375Z,2.90
2023-08-11T05:51:20.578Z,3.00
2023-08-11T05:54:00.372Z,3.47
2023-08-11T05:56:47.500Z,2.50
2023-08-11T05:59:28.034Z,2.60
2023-08-11T06:01:54.804Z,2.70
2023-08-11T06:04:21.515Z,2.30
2023-08-11T06:06:48.196Z,3.53
2023-08-11T06:09:15.184Z,2.05
2023-08-11T06:11:44.608Z,2.75
2023-08-11T06:14:11.311Z,3.45
2023-08-11T06:16:37.952Z,3.20
2023-08-11T06:19:04.708Z,2.30
2023-08-11T06:21:34.629Z,2.80
2023-08-11T06:24:01.440Z,2.10
2023-08-11T06:26:28.087Z,1.80
2023-08-11T06:28:54.609Z,2.10
2023-08-11T06:31:30.003Z,1.98
2023-08-11T06:33:58.734Z,2.40
2023-08-11T06:36:37.171Z,1.75
2023-08-11T06:41:55.524Z,1.80
2023-08-11T06:44:30.180Z,1.50
2023-08-11T06:46:59.522Z,1.88
2023-08-11T06:49:29.310Z,1.95
2023-08-11T06:51:57.664Z,2.00
2023-08-11T06:54:44.167Z,2.00
2023-08-11T06:57:13.650Z,1.80
2023-08-11T07:00:02.646Z,1.70
2023-08-11T07:02:31.901Z,1.85
2023-08-11T07:05:01.661Z,1.70
2023-08-11T07:07:31.262Z,1.83
2023-08-11T07:10:03.739Z,1.55
2023-08-11T07:12:34.155Z,1.80
2023-08-11T07:15:01.344Z,1.60
2023-08-11T07:17:28.512Z,1.95
2023-08-11T07:19:55.534Z,1.80
2023-08-11T07:22:24.381Z,1.83
2023-08-11T07:24:52.362Z,1.98
2023-08-11T07:27:19.565Z,1.73
2023-08-11T07:29:46.581Z,2.00
2023-08-11T07:32:13.305Z,2.05
2023-08-11T07:34:41.131Z,1.60
2023-08-11T07:37:08.200Z,1.88
2023-08-11T07:39:37.373Z,1.80
2023-08-11T07:42:04.352Z,1.65
2023-08-11T07:44:36.878Z,1.55
2023-08-11T07:47:04.031Z,1.83
2023-08-11T07:49:30.800Z,1.95
2023-08-11T07:51:58.565Z,1.73
2023-08-11T07:54:29.106Z,2.03
2023-08-11T07:56:55.781Z,1.70
2023-08-11T07:59:22.694Z,2.10
2023-08-11T08:01:49.684Z,1.80
2023-08-11T08:04:23.671Z,1.90
2023-08-11T08:06:50.313Z,1.98
2023-08-11T08:09:16.972Z,2.10
2023-08-11T08:11:47.483Z,1.80
2023-08-11T08:14:15.017Z,1.88
2023-08-11T08:16:50.975Z,1.98
2023-08-11T08:19:18.387Z,1.80
2023-08-11T08:21:45.204Z,1.90
2023-08-11T08:24:12.431Z,1.77
2023-08-11T08:29:08.632Z,1.80
2023-08-11T08:31:40.343Z,1.80
2023-08-11T08:34:07.317Z,1.90
2023-08-11T08:36:50.592Z,1.70
2023-08-11T08:39:17.162Z,1.90
2023-08-11T08:42:18.504Z,1.45
2023-08-11T08:45:04.729Z,2.05
2023-08-11T08:47:38.245Z,2.00
2023-08-11T08:52:57.219Z,1.85
2023-08-11T08:55:31.627Z,1.70
2023-08-11T08:57:58.407Z,1.90
2023-08-11T09:00:25.007Z,1.95
2023-08-11T09:03:01.769Z,1.83
2023-08-11T09:05:34.774Z,2.17
2023-08-11T09:08:11.946Z,1.88
2023-08-11T09:10:42.518Z,2.00
2023-08-11T09:13:09.645Z,2.03
2023-08-11T09:15:40.249Z,1.90
2023-08-11T09:18:13.573Z,1.63
2023-08-11T09:23:37.408Z,1.80
2023-08-11T09:26:10.437Z,2.00
2023-08-11T09:28:48.059Z,1.85
2023-08-11T09:31:14.572Z,1.98
2023-08-11T09:33:42.808Z,1.67
2023-08-11T09:36:12.728Z,1.75
2023-08-11T09:38:43.999Z,1.92
2023-08-11T09:41:24.866Z,1.90
2023-08-11T09:43:55.446Z,2.15
2023-08-11T09:46:29.427Z,2.10
2023-08-11T09:48:56.475Z,2.00
2023-08-11T09:51:37.448Z,2.00
2023-08-11T09:54:08.548Z,1.80
2023-08-11T09:56:45.271Z,1.95
2023-08-11T09:59:22.024Z,2.00
2023-08-11T10:01:51.439Z,2.00
2023-08-11T10:04:45.809Z,2.08
2023-08-11T10:07:17.500Z,2.00
2023-08-11T10:09:50.047Z,1.90
2023-08-11T10:12:17.423Z,1.90
2023-08-11T10:14:47.385Z,1.65
2023-08-11T10:17:14.820Z,1.70
2023-08-11T10:19:41.530Z,1.70
2023-08-11T10:22:19.118Z,1.67
2023-08-11T10:24:48.172Z,1.90
2023-08-11T10:27:18.770Z,1.90
2023-08-11T10:29:49.375Z,1.77
2023-08-11T10:32:16.289Z,2.30
2023-08-11T10:34:46.923Z,1.63
2023-08-11T10:37:15.987Z,1.50
2023-08-11T10:40:12.104Z,1.88
2023-08-11T10:42:42.570Z,2.10
2023-08-11T10:45:16.892Z,1.60
2023-08-11T10:48:03.069Z,1.90
2023-08-11T14:15:45.382Z,1.95
2023-08-11T14:18:31.201Z,1.85
2023-08-11T14:21:32.241Z,1.83
2023-08-11T15:00:22.983Z,1.90
2023-08-11T15:03:24.746Z,1.88
2023-08-11T15:06:21.066Z,1.90
2023-08-11T15:09:21.941Z,1.98
2023-08-11T15:12:21.162Z,1.90
2023-08-11T15:18:38.940Z,2.13
2023-08-11T15:21:21.062Z,1.83
2023-08-11T15:24:04.785Z,1.88
2023-08-11T15:26:54.641Z,1.80
2023-08-11T15:29:57.014Z,1.90
2023-08-11T15:36:30.723Z,2.00
2023-08-11T15:43:02.604Z,2.20
2023-08-11T15:45:33.533Z,2.00
2023-08-11T15:48:44.001Z,2.00
2023-08-11T15:51:18.650Z,1.92
2023-08-11T15:53:54.535Z,2.10
2023-08-11T15:57:08.027Z,1.83
2023-08-11T16:01:22.365Z,1.88
2023-08-11T16:03:20.123Z,2.00
2023-08-11T16:05:59.945Z,2.00
2023-08-11T16:12:08.074Z,2.00
2023-08-11T16:14:45.529Z,1.70
2023-08-11T16:17:15.438Z,1.90
2023-08-11T16:19:45.133Z,1.73
2023-08-11T16:22:35.115Z,1.80
2023-08-11T16:25:05.133Z,2.00
2023-08-11T16:34:32.519Z,1.88
2023-08-11T16:40:18.518Z,1.95
2023-08-11T16:44:18.386Z,1.88
2023-08-11T16:47:01.394Z,1.80
2023-08-11T16:49:53.124Z,1.90
2023-08-11T16:52:44.651Z,1.98
2023-08-11T16:55:11.350Z,2.15
2023-08-11T16:57:38.669Z,1.48
2023-08-11T17:00:11.810Z,2.35
2023-08-11T17:02:38.451Z,1.95
2023-08-11T17:05:05.617Z,2.28
2023-08-11T17:07:32.834Z,1.92
2023-08-11T17:10:05.583Z,1.88
2023-08-11T17:12:33.853Z,1.83
2023-08-11T17:15:00.866Z,2.10
2023-08-11T17:17:32.274Z,2.30
2023-08-11T17:19:59.018Z,2.22
2023-08-11T17:22:27.243Z,2.22
2023-08-11T17:25:02.462Z,2.65
2023-08-11T17:27:32.004Z,2.60
2023-08-11T17:30:01.734Z,3.22
2023-08-11T17:32:28.843Z,2.92
2023-08-11T17:35:00.028Z,3.80
2023-08-11T17:37:27.346Z,3.00
2023-08-11T17:40:02.783Z,2.50
2023-08-11T17:42:31.923Z,2.50
2023-08-11T17:47:46.178Z,2.60
2023-08-11T17:50:27.016Z,2.10
2023-08-11T17:52:53.850Z,2.75
2023-08-11T17:55:37.704Z,2.30
2023-08-11T17:58:12.250Z,2.15
2023-08-11T18:00:44.638Z,2.35
2023-08-11T18:03:18.926Z,2.67
2023-08-11T18:06:07.927Z,2.83
2023-08-11T18:08:58.877Z,2.58
2023-08-11T18:11:37.639Z,2.60
2023-08-11T18:14:07.545Z,2.38
2023-08-11T18:16:35.731Z,2.25
2023-08-11T18:19:10.550Z,2.00
2023-08-11T18:21:48.954Z,2.00
2023-08-11T18:24:18.389Z,2.25
2023-08-11T18:26:44.931Z,2.22
2023-08-11T18:29:11.710Z,2.25
2023-08-11T18:31:38.337Z,2.30
2023-08-11T18:34:05.117Z,2.08
2023-08-11T18:36:34.501Z,2.38
2023-08-11T18:39:01.194Z,2.35
2023-08-11T18:41:27.673Z,2.15
2023-08-11T18:43:54.208Z,2.13
2023-08-11T18:46:20.773Z,2.38
2023-08-11T18:48:49.588Z,2.45
2023-08-11T18:51:18.624Z,2.80
2023-08-11T18:53:45.312Z,2.45
2023-08-11T18:56:12.461Z,2.60
2023-08-11T18:58:39.261Z,2.20
2023-08-11T19:01:09.184Z,2.60
2023-08-11T19:03:38.238Z,2.40
2023-08-11T19:06:05.792Z,3.20
2023-08-11T19:08:32.585Z,2.97
2023-08-11T19:11:08.219Z,2.70
2023-08-11T19:13:46.360Z,2.90
2023-08-11T19:16:17.370Z,2.53
2023-08-11T19:18:52.844Z,2.50
2023-08-11T19:21:22.522Z,2.58
2023-08-11T19:23:55.618Z,2.63
2023-08-11T19:26:24.475Z,2.50
2023-08-11T19:28:51.202Z,2.30
2023-08-11T19:31:18.113Z,2.42
2023-08-11T19:33:47.407Z,2.92
2023-08-11T19:36:15.446Z,2.60
2023-08-11T19:38:45.801Z,3.45
2023-08-11T19:41:13.842Z,3.40
2023-08-11T19:43:43.707Z,3.25
2023-08-11T19:46:14.920Z,3.10
2023-08-11T19:48:41.659Z,2.47
2023-08-11T19:51:14.413Z,2.92
2023-08-11T19:53:48.520Z,2.90
2023-08-11T19:56:15.390Z,2.80
2023-08-11T19:58:44.857Z,2.80
2023-08-11T20:01:13.619Z,3.10
2023-08-11T20:03:40.698Z,2.78
2023-08-11T20:06:09.668Z,2.67
2023-08-11T20:08:46.018Z,2.55
2023-08-11T20:11:15.434Z,2.80
2023-08-11T20:13:42.346Z,2.13
2023-08-11T20:16:09.926Z,2.42
2023-08-11T20:18:36.433Z,2.15
2023-08-11T20:21:03.174Z,2.53
2023-08-11T20:23:29.699Z,2.40
2023-08-11T20:25:56.187Z,2.22
2023-08-11T20:28:26.231Z,2.30
2023-08-11T20:30:52.978Z,2.33
2023-08-11T20:33:19.765Z,2.22
2023-08-11T20:35:48.644Z,2.22
2023-08-11T20:38:18.056Z,2.45
2023-08-11T20:40:48.080Z,2.40
2023-08-11T20:43:17.886Z,2.13
2023-08-11T20:45:52.574Z,2.30
2023-08-11T20:48:20.499Z,2.50
2023-08-11T20:53:19.058Z,2.35
2023-08-11T20:58:12.468Z,2.42
2023-08-11T21:00:45.618Z,2.25
2023-08-11T21:03:14.563Z,2.50
2023-08-11T21:05:42.546Z,2.17
2023-08-11T21:08:14.380Z,2.40
2023-08-11T21:10:42.600Z,2.50
2023-08-11T21:13:09.139Z,2.30
2023-08-11T21:15:40.880Z,2.25
2023-08-11T21:18:09.675Z,2.38
2023-08-11T21:20:40.760Z,2.38
2023-08-11T21:23:09.969Z,2.30
2023-08-11T21:25:36.839Z,2.30
2023-08-11T21:28:05.600Z,2.42
2023-08-11T21:30:46.633Z,1.98
2023-08-11T21:33:16.531Z,2.50
2023-08-11T21:35:45.870Z,2.70
2023-08-11T21:38:16.553Z,2.40
2023-08-11T21:40:43.627Z,1.92
2023-08-11T21:43:14.534Z,2.22
2023-08-11T21:45:43.309Z,2.30
2023-08-11T21:48:12.695Z,2.28
2023-08-11T21:50:44.882Z,2.45
2023-08-11T21:53:22.306Z,2.40
2023-08-11T21:58:33.722Z,2.30
2023-08-11T22:01:01.788Z,2.35
2023-08-11T22:06:00.587Z,2.50
2023-08-11T22:08:27.493Z,2.17
2023-08-11T22:11:33.898Z,2.13
2023-08-11T22:17:10.086Z,2.33
2023-08-11T22:19:46.969Z,2.28
2023-08-11T22:22:20.733Z,2.35
2023-08-11T22:24:50.232Z,2.53
2023-08-11T22:27:23.669Z,2.80
2023-08-11T22:29:57.697Z,2.55
2023-08-11T22:32:32.486Z,2.17
2023-08-11T22:35:11.841Z,2.47
2023-08-11T22:37:51.918Z,2.47
2023-08-11T22:40:30.394Z,2.35
2023-08-11T22:42:58.960Z,2.60
2023-08-11T22:45:44.391Z,2.50
2023-08-11T22:48:22.474Z,2.40
2023-08-11T22:53:52.033Z,2.30
2023-08-11T22:56:39.604Z,2.47
2023-08-11T22:59:08.595Z,2.35
2023-08-11T23:01:41.313Z,2.50
2023-08-11T23:04:13.299Z,2.40
2023-08-11T23:06:40.165Z,2.00
2023-08-11T23:09:21.073Z,2.53
2023-08-11T23:11:51.127Z,2.38
2023-08-11T23:14:27.883Z,2.30
2023-08-11T23:16:57.992Z,2.50
2023-08-11T23:19:49.782Z,2.30
2023-08-11T23:22:16.409Z,2.03
2023-08-11T23:24:47.089Z,2.22
2023-08-11T23:27:19.861Z,2.75
2023-08-11T23:29:49.749Z,2.30
2023-08-11T23:32:17.989Z,2.70
2023-08-11T23:34:50.182Z,2.60
2023-08-11T23:37:24.981Z,2.20
2023-08-11T23:40:02.979Z,2.50
2023-08-11T23:42:56.240Z,2.35
2023-08-11T23:45:27.613Z,2.22
2023-08-11T23:48:07.910Z,2.30
